Time;durP1;ratioP1;P1;durP2;ratioP2;P2;SDS_P1;SDS_P2;PMS_P1;PMS_P2;Temp;Humidity;BMP_temperature;BMP_pressure;BME280_temperature;BME280_humidity;BME280_pressure;Samples;Min_cycle;Max_cycle;Signal;HPM_P1;HPM_P2
2022/05/21 00:00:46;;;;;;;22.42;5.78;;;;;;;14.90;56.54;101039.09;1758068;81;25725;-59
2022/05/21 00:03:13;;;;;;;14.50;5.20;;;;;;;14.90;56.77;101049.44;1758202;81;25824;-59
2022/05/21 00:05:41;;;;;;;13.78;4.55;;;;;;;14.92;57.33;101043.84;1758162;81;28280;-59
2022/05/21 00:08:09;;;;;;;13.50;4.60;;;;;;;14.95;57.12;101049.80;1758474;81;25808;-59
2022/05/21 00:10:38;;;;;;;11.45;5.05;;;;;;;14.95;58.06;101045.73;1758270;81;27445;-59
2022/05/21 00:13:06;;;;;;;17.60;4.97;;;;;;;14.92;57.76;101043.84;1758400;81;25811;-60
2022/05/21 00:15:35;;;;;;;13.38;4.72;;;;;;;14.86;57.94;101041.27;1743420;81;25766;-59
2022/05/21 00:18:03;;;;;;;18.45;4.60;;;;;;;14.86;58.06;101043.48;1726136;82;26194;-59
2022/05/21 00:20:48;;;;;;;13.53;4.40;;;;;;;14.88;57.72;101046.03;1725903;82;25769;-59
2022/05/21 00:23:30;;;;;;;13.25;3.90;;;;;;;14.92;57.55;101042.02;1726118;83;27367;-59
2022/05/21 00:26:05;;;;;;;12.80;4.60;;;;;;;14.95;57.58;101042.19;1725213;83;25725;-59
2022/05/21 00:28:34;;;;;;;27.15;5.55;;;;;;;14.97;57.51;101041.02;1725447;81;25706;-59
2022/05/21 00:31:03;;;;;;;18.07;5.15;;;;;;;14.91;57.10;101034.89;1725693;83;26730;-59
2022/05/21 00:33:33;;;;;;;22.77;5.42;;;;;;;14.86;57.20;101042.62;1725891;83;44120;-59
2022/05/21 00:36:00;;;;;;;12.43;4.70;;;;;;;14.84;57.15;101044.14;1725650;81;28348;-59
2022/05/21 00:38:26;;;;;;;14.87;4.60;;;;;;;14.80;57.49;101042.73;1726118;81;25683;-59
2022/05/21 00:40:55;;;;;;;9.98;4.25;;;;;;;14.73;57.46;101051.16;1726140;82;25702;-59
2022/05/21 00:43:45;;;;;;;9.45;4.58;;;;;;;14.63;57.64;101044.94;1724334;83;26216;-59
2022/05/21 00:46:20;;;;;;;11.63;3.55;;;;;;;14.47;58.56;101038.38;1724928;83;25737;-59
2022/05/21 00:49:13;;;;;;;10.38;4.45;;;;;;;14.31;58.25;101036.88;1726189;83;27467;-60
2022/05/21 00:52:18;;;;;;;18.65;4.05;;;;;;;14.19;58.77;101037.62;1725551;83;25817;-59
2022/05/21 00:54:50;;;;;;;;;;;;;;;14.11;58.52;101034.31;1728386;83;25848;-59
2022/05/21 00:57:28;;;;;;;12.05;4.22;;;;;;;13.98;58.45;101036.03;1725931;83;26890;-59
2022/05/21 01:00:07;;;;;;;11.12;4.17;;;;;;;13.92;58.55;101041.55;1726091;83;25812;-59
2022/05/21 01:02:41;;;;;;;10.32;3.95;;;;;;;13.89;58.98;101037.81;1725709;83;27586;-59
2022/05/21 01:05:13;;;;;;;17.75;4.50;;;;;;;13.87;58.75;101046.58;1725845;83;25879;-59
2022/05/21 01:07:43;;;;;;;13.05;4.87;;;;;;;13.86;58.70;101050.27;1726003;82;25722;-58
2022/05/21 01:10:14;;;;;;;14.98;4.30;;;;;;;13.86;59.04;101047.57;1725777;83;26240;-59
2022/05/21 01:12:45;;;;;;;9.25;3.77;;;;;;;13.84;59.11;101031.16;1726239;83;25721;-59
2022/05/21 01:15:17;;;;;;;17.10;4.20;;;;;;;13.83;59.17;101028.09;1725795;81;28184;-59
2022/05/21 01:17:46;;;;;;;11.50;4.20;;;;;;;13.82;60.06;101027.23;1725832;81;25794;-59
2022/05/21 01:20:18;;;;;;;13.72;4.45;;;;;;;13.80;60.20;101022.50;1726100;82;25786;-59
2022/05/21 01:22:52;;;;;;;13.95;4.53;;;;;;;13.77;60.06;101014.16;1726034;83;26079;-59
2022/05/21 01:25:25;;;;;;;13.95;4.60;;;;;;;13.75;60.14;101012.13;1726483;81;25726;-60
2022/05/21 01:27:56;;;;;;;21.05;6.62;;;;;;;13.76;60.80;101007.05;1725781;83;27616;-60
2022/05/21 01:30:37;;;;;;;15.55;5.00;;;;;;;13.79;61.16;101012.68;1725978;83;25812;-59
2022/05/21 01:33:07;;;;;;;16.95;5.30;;;;;;;13.73;61.59;101018.19;1725947;83;25776;-60
2022/05/21 01:35:36;;;;;;;14.10;4.00;;;;;;;13.70;61.99;101016.29;1726035;83;26085;-59
2022/05/21 01:38:04;;;;;;;57.62;5.22;;;;;;;13.70;63.13;101016.29;1726163;82;25748;-59
2022/05/21 01:40:31;;;;;;;9.90;4.10;;;;;;;13.68;62.31;101015.06;1726061;83;27463;-59
2022/05/21 01:45:44;;;;;;;14.60;3.50;;;;;;;13.68;61.64;101010.17;1726037;83;25691;-58
2022/05/21 01:48:12;;;;;;;12.90;3.70;;;;;;;13.67;61.49;101007.95;1726028;83;26090;-59
2022/05/21 01:50:39;;;;;;;8.10;4.25;;;;;;;13.68;61.40;101005.60;1725993;83;25941;-59
2022/05/21 01:53:06;;;;;;;24.45;4.30;;;;;;;13.76;61.96;101002.99;1726114;82;27515;-59
2022/05/21 01:55:33;;;;;;;18.10;4.28;;;;;;;13.78;61.95;101001.51;1725766;81;25874;-59
2022/05/21 01:58:00;;;;;;;19.77;4.30;;;;;;;13.75;61.33;100997.75;1725871;82;25824;-60
2022/05/21 02:00:27;;;;;;;12.70;4.33;;;;;;;13.78;61.20;100995.59;1725991;81;27129;-60
2022/05/21 02:02:54;;;;;;;14.07;4.40;;;;;;;13.82;61.04;101002.05;1725914;83;25754;-60
2022/05/21 02:05:21;;;;;;;13.83;4.25;;;;;;;13.86;60.79;100996.67;1726023;81;29731;-60
2022/05/21 02:07:48;;;;;;;10.90;4.10;;;;;;;13.86;60.60;100998.03;1725924;81;25738;-60
2022/05/21 02:10:17;;;;;;;22.45;4.03;;;;;;;13.86;60.41;101003.44;1726154;83;25784;-59
2022/05/21 02:12:44;;;;;;;8.23;3.60;;;;;;;13.83;60.36;100998.35;1726293;81;26051;-60
2022/05/21 02:15:12;;;;;;;8.45;3.80;;;;;;;13.80;60.12;100996.81;1725953;83;25476;-60
2022/05/21 02:17:40;;;;;;;12.20;3.67;;;;;;;13.80;60.14;101008.11;1725918;80;27449;-60
2022/05/21 02:20:08;;;;;;;9.58;3.87;;;;;;;13.76;60.14;101000.29;1725988;82;25801;-59
2022/05/21 02:22:39;;;;;;;11.12;3.55;;;;;;;13.73;60.14;100998.39;1726259;81;25520;-59
2022/05/21 02:25:08;;;;;;;9.50;4.08;;;;;;;13.70;60.19;100998.72;1725854;81;26116;-57
2022/05/21 02:27:36;;;;;;;10.85;4.15;;;;;;;13.67;60.21;100994.44;1726262;82;26075;-58
2022/05/21 02:30:04;;;;;;;10.82;4.15;;;;;;;13.65;60.60;101001.00;1726128;82;27638;-58
2022/05/21 02:32:31;;;;;;;12.25;4.00;;;;;;;13.58;60.56;101001.61;1713595;81;25879;-58
2022/05/21 02:34:58;;;;;;;9.45;3.83;;;;;;;13.53;61.20;101007.98;1695412;84;25721;-58
2022/05/21 02:40:10;;;;;;;8.28;3.87;;;;;;;13.42;61.65;101008.17;1695568;83;25761;-59
2022/05/21 02:42:45;;;;;;;17.50;3.95;;;;;;;13.39;62.80;101020.14;1695705;84;26769;-59
2022/05/21 02:45:23;;;;;;;16.60;3.65;;;;;;;13.36;62.77;101016.34;1695825;83;25773;-59
2022/05/21 02:47:53;;;;;;;11.43;3.47;;;;;;;13.34;62.92;101025.08;1738129;81;25808;-58
2022/05/21 02:50:25;;;;;;;7.67;3.45;;;;;;;13.37;62.98;101030.20;1739274;82;26142;-58
2022/05/21 02:52:52;;;;;;;15.40;4.05;;;;;;;13.42;63.33;101027.92;1739384;82;25473;-59
2022/05/21 02:55:20;;;;;;;7.65;3.45;;;;;;;13.47;62.88;101024.78;1739424;81;27292;-60
2022/05/21 02:57:47;;;;;;;10.80;3.55;;;;;;;13.54;62.65;101021.82;1739455;81;25785;-59
2022/05/21 03:00:19;;;;;;;9.38;3.50;;;;;;;13.60;62.60;101025.30;1739396;82;25786;-59
2022/05/21 03:02:46;;;;;;;9.95;3.15;;;;;;;13.65;63.00;101034.80;1739576;81;26862;-59
2022/05/21 03:05:14;;;;;;;16.12;3.83;;;;;;;13.68;62.82;101027.75;1738964;81;25445;-59
2022/05/21 03:07:44;;;;;;;6.62;3.40;;;;;;;13.72;62.60;101027.30;1739679;81;27667;-59
2022/05/21 03:10:21;;;;;;;15.53;3.62;;;;;;;13.76;62.50;101019.73;1738965;81;25653;-59
2022/05/21 03:12:56;;;;;;;12.55;3.90;;;;;;;13.84;62.46;101009.52;1739225;82;25769;-58
2022/05/21 03:15:33;;;;;;;12.93;3.65;;;;;;;13.92;62.67;101019.08;1739220;82;28208;-59
2022/05/21 03:18:02;;;;;;;5.83;2.90;;;;;;;13.93;62.43;101000.50;1731806;81;25829;-59
2022/05/21 03:20:29;;;;;;;12.07;3.65;;;;;;;13.98;62.21;101000.88;1731753;81;27478;-59
2022/05/21 03:22:56;;;;;;;7.03;3.33;;;;;;;14.05;61.98;100999.77;1731662;82;25756;-59
2022/05/21 03:25:23;;;;;;;12.75;3.87;;;;;;;14.07;61.76;100997.25;1731655;81;25453;-59
2022/05/21 03:27:51;;;;;;;10.23;3.50;;;;;;;14.11;61.54;101000.49;1731559;82;26206;-60
2022/05/21 03:30:23;;;;;;;6.55;3.30;;;;;;;14.15;61.33;100993.78;1731800;81;26115;-60
2022/05/21 03:32:51;;;;;;;15.58;3.40;;;;;;;14.13;61.21;100997.62;1728614;82;27461;-60
2022/05/21 03:35:19;;;;;;;7.40;2.83;;;;;;;14.12;61.25;100998.14;1725857;82;25650;-60
2022/05/21 03:37:47;;;;;;;7.33;3.02;;;;;;;14.11;61.12;100992.89;1726107;83;25828;-59
2022/05/21 03:40:21;;;;;;;12.50;3.00;;;;;;;14.07;61.33;100981.54;1725951;82;26241;-59
2022/05/21 03:42:48;;;;;;;15.00;5.33;;;;;;;14.00;60.88;100986.70;1726272;81;25797;-60
2022/05/21 03:45:16;;;;;;;10.10;3.90;;;;;;;14.01;60.78;100987.05;1725780;82;27487;-60
2022/05/21 03:47:43;;;;;;;14.55;3.80;;;;;;;14.05;60.70;100981.67;1726106;83;25429;-58
2022/05/21 03:50:14;;;;;;;9.58;3.30;;;;;;;14.11;60.55;100975.31;1725962;83;26261;-59
2022/05/21 03:52:42;;;;;;;11.18;4.00;;;;;;;14.15;60.54;100969.44;1726030;81;26908;-58
2022/05/21 03:55:09;;;;;;;13.18;3.50;;;;;;;14.21;60.64;100969.30;1725896;81;25722;-59
2022/05/21 03:57:37;;;;;;;7.70;3.42;;;;;;;14.25;61.00;100961.23;1725888;83;27985;-59
2022/05/21 04:00:08;;;;;;;12.68;3.30;;;;;;;14.25;60.63;100966.64;1726197;83;25733;-59
2022/05/21 04:02:37;;;;;;;11.60;3.22;;;;;;;14.32;60.55;100960.95;1725549;83;25805;-59
2022/05/21 04:05:07;;;;;;;7.72;3.60;;;;;;;14.40;60.38;100955.59;1725962;82;26036;-58
2022/05/21 04:07:34;;;;;;;9.85;3.95;;;;;;;14.48;60.29;100960.23;1726015;81;25814;-59
2022/05/21 04:10:00;;;;;;;11.35;3.50;;;;;;;14.55;60.12;100948.28;1726322;82;28074;-59
2022/05/21 04:12:27;;;;;;;12.75;4.42;;;;;;;14.62;60.06;100946.63;1726010;81;26168;-59
2022/05/21 04:14:54;;;;;;;13.13;3.90;;;;;;;14.69;59.92;100943.66;1726150;82;25730;-58
2022/05/21 04:17:20;;;;;;;7.80;3.33;;;;;;;14.76;60.20;100934.89;1719902;82;26160;-60
2022/05/21 04:19:47;;;;;;;10.95;3.12;;;;;;;14.80;60.24;100929.52;1715384;82;25754;-59
2022/05/21 04:22:14;;;;;;;29.63;3.50;;;;;;;14.89;60.27;100932.61;1715419;83;27455;-60
2022/05/21 04:24:41;;;;;;;8.85;3.20;;;;;;;14.94;59.78;100934.33;1715348;83;25458;-59
2022/05/21 04:27:08;;;;;;;11.18;3.40;;;;;;;15.05;59.66;100934.57;1715495;83;25764;-61
2022/05/21 04:29:37;;;;;;;9.40;3.15;;;;;;;15.16;59.39;100938.33;1715256;83;26095;-59
2022/05/21 04:32:06;;;;;;;13.55;2.95;;;;;;;15.29;59.02;100934.33;1715538;83;25821;-59
2022/05/21 04:34:33;;;;;;;11.05;3.10;;;;;;;15.42;58.71;100930.63;1715044;83;28377;-60
2022/05/21 04:36:59;;;;;;;13.18;3.90;;;;;;;15.57;58.57;100925.95;1715278;82;25752;-60
2022/05/21 04:39:26;;;;;;;18.77;3.65;;;;;;;15.71;58.37;100922.59;1715172;83;25850;-60
2022/05/21 04:41:53;;;;;;;13.30;3.45;;;;;;;15.81;57.64;100912.44;1726192;81;26108;-60
2022/05/21 04:44:20;;;;;;;21.15;3.90;;;;;;;15.92;57.33;100914.52;1713863;83;25654;-59
2022/05/21 04:46:46;;;;;;;12.75;4.62;;;;;;;16.02;57.00;100916.57;1714316;83;27461;-58
2022/05/21 04:49:13;;;;;;;21.15;4.33;;;;;;;16.14;56.74;100924.39;1714679;83;25685;-59
2022/05/21 04:51:40;;;;;;;18.32;5.22;;;;;;;16.22;56.33;100927.93;1714878;83;25714;-59
2022/05/21 04:54:08;;;;;;;12.03;4.20;;;;;;;16.34;56.13;100933.03;1715181;83;26177;-59
2022/05/21 04:56:34;;;;;;;22.50;4.70;;;;;;;16.44;55.70;100930.98;1714835;83;26196;-59
2022/05/21 04:59:01;;;;;;;16.48;4.60;;;;;;;16.51;55.47;100929.77;1715050;83;27445;-59
2022/05/21 05:01:30;;;;;;;30.77;5.35;;;;;;;16.59;55.43;100923.84;1714722;83;25899;-59
2022/05/21 05:03:58;;;;;;;39.27;5.17;;;;;;;16.66;55.55;100919.92;1714796;83;25514;-59
2022/05/21 05:06:24;;;;;;;18.55;4.78;;;;;;;16.74;55.45;100914.47;1715345;83;26189;-59
2022/05/21 05:08:51;;;;;;;15.63;3.70;;;;;;;16.80;54.97;100909.35;1715225;83;25863;-59
2022/05/21 05:11:18;;;;;;;14.65;4.15;;;;;;;16.87;54.64;100906.27;1714967;83;27482;-58
2022/05/21 05:13:45;;;;;;;17.17;4.53;;;;;;;16.95;54.43;100900.01;1715365;83;25817;-59
2022/05/21 05:16:11;;;;;;;27.27;4.90;;;;;;;17.03;54.39;100896.73;1714744;83;25793;-58
2022/05/21 05:18:38;;;;;;;13.72;4.67;;;;;;;17.12;54.04;100897.56;1715019;81;26068;-59
2022/05/21 05:21:05;;;;;;;16.20;4.05;;;;;;;17.21;53.91;100900.58;1705225;83;25663;-59
2022/05/21 05:23:32;;;;;;;23.92;4.72;;;;;;;17.30;53.64;100899.17;1686919;84;27573;-58
2022/05/21 05:25:59;;;;;;;30.48;4.75;;;;;;;17.39;52.72;100887.77;1687109;83;25861;-59
2022/05/21 05:28:28;;;;;;;21.20;4.62;;;;;;;17.49;52.43;100887.00;1686819;85;25729;-59
2022/05/21 05:30:56;;;;;;;11.65;4.17;;;;;;;17.58;52.24;100885.92;1687104;85;26704;-59
2022/05/21 05:33:24;;;;;;;25.10;4.42;;;;;;;17.70;52.20;100880.08;1708476;83;25753;-60
2022/05/21 05:35:52;;;;;;;23.00;3.95;;;;;;;17.79;52.11;100878.50;1715254;83;27605;-60
2022/05/21 05:38:21;;;;;;;14.93;4.00;;;;;;;17.89;51.93;100877.37;1714858;83;25718;-59
2022/05/21 05:40:50;;;;;;;14.65;3.50;;;;;;;17.98;51.35;100870.38;1714711;83;25787;-61
2022/05/21 05:43:20;;;;;;;24.37;4.30;;;;;;;18.10;51.23;100864.50;1715438;83;26837;-59
2022/05/21 05:45:58;;;;;;;18.27;3.47;;;;;;;18.22;50.96;100863.02;1715703;83;25707;-59
2022/05/21 05:48:25;;;;;;;19.45;4.10;;;;;;;18.35;50.45;100856.92;1715067;82;27570;-60
2022/05/21 05:50:55;;;;;;;24.20;3.72;;;;;;;18.49;50.03;100863.95;1715495;82;25718;-59
2022/05/21 05:53:22;;;;;;;24.10;3.87;;;;;;;18.61;49.97;100857.86;1715546;83;25559;-60
2022/05/21 05:55:49;;;;;;;10.93;3.58;;;;;;;18.80;48.68;100860.19;1715477;83;26136;-59
2022/05/21 06:01:02;;;;;;;7.05;2.75;;;;;;;19.28;47.22;100863.38;1715344;82;28199;-60
2022/05/21 06:03:29;;;;;;;8.13;1.60;;;;;;;19.54;45.21;100868.80;1715666;82;25776;-60
2022/05/21 06:05:56;;;;;;;12.37;1.82;;;;;;;19.79;42.68;100869.78;1715159;83;25717;-59
2022/05/21 06:08:23;;;;;;;5.37;1.55;;;;;;;20.02;40.35;100870.98;1715341;83;26166;-59
2022/05/21 06:10:51;;;;;;;5.22;2.35;;;;;;;20.21;40.54;100871.34;1715635;82;25827;-59
2022/05/21 06:13:18;;;;;;;7.80;2.02;;;;;;;20.37;40.32;100865.58;1715618;82;27536;-59
2022/05/21 06:15:44;;;;;;;6.28;1.85;;;;;;;20.59;39.69;100871.00;1715289;82;25769;-59
2022/05/21 06:18:16;;;;;;;6.30;2.10;;;;;;;20.73;40.21;100863.73;1715528;82;25757;-59
2022/05/21 06:20:44;;;;;;;12.00;2.15;;;;;;;20.83;40.16;100855.18;1715663;82;26096;-59
2022/05/21 06:23:12;;;;;;;7.10;2.12;;;;;;;20.95;39.26;100857.67;1715491;82;25979;-59
2022/05/21 06:25:40;;;;;;;10.93;2.10;;;;;;;21.06;39.48;100850.27;1715102;82;27543;-60
2022/05/21 06:28:08;;;;;;;6.22;1.70;;;;;;;21.15;39.55;100830.94;1715550;82;25710;-60
2022/05/21 06:30:38;;;;;;;5.90;1.70;;;;;;;21.29;38.65;100829.92;1715555;82;25833;-59
2022/05/21 06:33:19;;;;;;;3.92;2.00;;;;;;;21.43;38.75;100819.31;1715784;82;26856;-59
2022/05/21 06:35:49;;;;;;;4.83;1.80;;;;;;;21.57;37.99;100808.41;1715085;82;25726;-59
2022/05/21 06:38:17;;;;;;;2.60;1.42;;;;;;;21.70;37.98;100826.77;1715710;83;27502;-59
2022/05/21 06:40:46;;;;;;;5.97;2.25;;;;;;;21.79;38.21;100820.55;1715484;82;25773;-59
2022/05/21 06:43:15;;;;;;;8.88;2.00;;;;;;;21.89;37.81;100825.09;1715646;82;25487;-60
2022/05/21 06:45:41;;;;;;;6.45;1.60;;;;;;;22.01;37.71;100830.27;1715362;81;26141;-59
2022/05/21 06:48:09;;;;;;;5.90;1.82;;;;;;;22.14;37.23;100828.59;1715540;83;25714;-59
2022/05/21 06:50:39;;;;;;;4.10;1.70;;;;;;;22.22;37.49;100817.92;1715542;83;28211;-59
2022/05/21 06:53:06;;;;;;;15.00;1.98;;;;;;;22.31;37.00;100808.42;1715738;83;25764;-60
2022/05/21 06:55:34;;;;;;;8.30;1.90;;;;;;;22.38;37.62;100803.77;1715423;82;25718;-60
2022/05/21 06:58:01;;;;;;;10.48;2.20;;;;;;;22.48;37.23;100797.34;1715807;83;26265;-60
2022/05/21 07:00:28;;;;;;;8.10;1.67;;;;;;;22.56;37.50;100790.80;1715387;83;25754;-60
2022/05/21 07:02:54;;;;;;;21.02;13.40;;;;;;;22.64;36.82;100796.05;1715360;83;27427;-60
2022/05/21 07:08:28;;;;;;;3.95;1.62;;;;;;;22.79;36.82;100788.93;1715421;82;25687;-60
2022/05/21 07:10:55;;;;;;;5.78;2.10;;;;;;;22.88;36.61;100781.28;1715579;82;26274;-60
2022/05/21 07:13:24;;;;;;;5.42;2.10;;;;;;;22.97;36.52;100769.55;1715578;82;25780;-60
2022/05/21 07:15:54;;;;;;;4.05;2.12;;;;;;;23.05;36.44;100769.80;1715143;82;27479;-60
2022/05/21 07:18:23;;;;;;;5.60;1.80;;;;;;;23.10;35.67;100765.34;1721075;83;25865;-60
2022/05/21 07:20:51;;;;;;;3.72;1.80;;;;;;;23.18;36.04;100764.77;1725861;83;25497;-60
2022/05/21 07:23:18;;;;;;;11.28;1.77;;;;;;;23.30;35.24;100771.28;1725998;83;25714;-59
2022/05/21 07:25:47;;;;;;;12.13;1.80;;;;;;;23.40;35.40;100764.77;1726110;81;25714;-60
2022/05/21 07:28:15;;;;;;;6.12;1.82;;;;;;;23.54;34.78;100760.55;1725905;82;27450;-60
2022/05/21 07:30:45;;;;;;;4.12;1.50;;;;;;;23.65;34.30;100768.61;1725951;81;25768;-60
2022/05/21 07:33:15;;;;;;;8.58;2.37;;;;;;;23.76;33.72;100763.75;1726129;81;26356;-59
2022/05/21 07:35:43;;;;;;;4.78;2.02;;;;;;;23.89;33.50;100761.45;1725964;82;26933;-59
2022/05/21 07:38:13;;;;;;;3.67;1.50;;;;;;;24.04;33.45;100755.09;1726368;83;25778;-60
2022/05/21 07:40:41;;;;;;;8.88;1.72;;;;;;;24.21;32.81;100748.45;1726008;83;28176;-60
2022/05/21 07:43:22;;;;;;;5.80;2.00;;;;;;;24.38;33.10;100739.63;1726215;81;25800;-60
2022/05/21 07:45:49;;;;;;;3.17;1.80;;;;;;;24.53;33.07;100722.72;1725892;82;25482;-60
2022/05/21 07:48:18;;;;;;;5.22;2.05;;;;;;;24.67;33.13;100716.02;1725903;81;26143;-60
2022/05/21 07:50:50;;;;;;;9.75;2.10;;;;;;;24.85;33.10;100705.50;1726029;83;25675;-60
2022/05/21 07:53:23;;;;;;;10.65;1.85;;;;;;;25.00;33.14;100699.58;1726218;81;27453;-60
2022/05/21 07:55:51;;;;;;;;;;;;;;;25.13;32.43;100679.27;1728320;81;25493;-61
2022/05/21 07:58:20;;;;;;;19.12;2.67;;;;;;;25.29;32.36;100691.53;1726312;81;25804;-59
2022/05/21 08:00:50;;;;;;;7.85;1.80;;;;;;;25.44;32.43;100699.37;1725734;83;26091;-60
2022/05/21 08:03:19;;;;;;;4.53;1.62;;;;;;;25.62;32.33;100706.67;1726263;83;25534;-60
2022/05/21 08:05:48;;;;;;;9.10;2.05;;;;;;;25.74;30.91;100711.36;1725322;82;27587;-60
2022/05/21 08:08:16;;;;;;;9.45;2.72;;;;;;;25.87;30.61;100708.91;1726074;82;25714;-60
2022/05/21 08:10:45;;;;;;;5.28;1.65;;;;;;;26.02;30.96;100693.27;1726203;83;26539;-60
2022/05/21 08:13:13;;;;;;;19.98;2.30;;;;;;;26.06;30.92;100688.93;1725923;82;26099;-60
2022/05/21 08:15:40;;;;;;;9.85;1.60;;;;;;;26.06;30.08;100704.09;1726230;81;25741;-60
2022/05/21 08:18:08;;;;;;;10.20;1.98;;;;;;;25.90;30.09;100704.30;1725962;80;27585;-60
2022/05/21 08:20:37;;;;;;;3.60;2.00;;;;;;;25.78;30.58;100705.66;1725974;81;25805;-60
2022/05/21 08:28:36;;;;;;;11.95;3.95;;;;;;;25.91;30.71;100710.09;1725999;81;25698;-60
2022/05/21 08:31:03;;;;;;;8.48;2.00;;;;;;;26.01;30.42;100702.05;1725900;81;28340;-60
2022/05/21 08:33:31;;;;;;;12.20;2.00;;;;;;;26.09;30.13;100692.06;1701202;82;25782;-60
2022/05/21 08:35:59;;;;;;;12.50;1.60;;;;;;;26.14;30.34;100691.34;1695604;84;25662;-60
2022/05/21 08:38:26;;;;;;;6.45;1.70;;;;;;;26.24;29.92;100700.39;1695855;83;27145;-59
2022/05/21 08:41:03;;;;;;;4.47;1.57;;;;;;;26.28;29.85;100693.84;1695845;84;26443;-59
2022/05/21 08:44:05;;;;;;;6.22;1.67;;;;;;;26.37;29.50;100686.88;1735144;82;26923;-59
2022/05/21 08:47:03;;;;;;;8.65;2.90;;;;;;;26.37;29.61;100676.66;1731819;81;25816;-60
2022/05/21 08:49:41;;;;;;;8.80;2.15;;;;;;;26.53;29.62;100666.80;1726073;83;25708;-59
2022/05/21 08:52:32;;;;;;;7.80;1.90;;;;;;;26.70;29.74;100671.52;1726059;81;26770;-59
2022/05/21 08:55:04;;;;;;;;;;;;;;;26.80;29.19;100675.89;1721849;81;26197;-59
2022/05/21 08:57:48;;;;;;;6.85;1.77;;;;;;;26.95;29.26;100671.20;1725935;83;27618;-60
2022/05/21 09:00:41;;;;;;;9.28;1.60;;;;;;;27.12;27.86;100671.20;1683831;82;25846;-60
2022/05/21 09:03:12;;;;;;;3.87;1.45;;;;;;;27.18;28.18;100652.28;1668061;86;26039;-60
2022/05/21 09:05:43;;;;;;;3.65;1.50;;;;;;;27.38;28.23;100651.47;1667959;86;26064;-60
2022/05/21 09:08:20;;;;;;;12.40;1.85;;;;;;;27.62;27.55;100650.77;1667958;86;25781;-60
2022/05/21 09:11:04;;;;;;;4.72;1.50;;;;;;;27.85;27.93;100646.11;1668258;85;27583;-61
2022/05/21 09:13:54;;;;;;;3.37;1.72;;;;;;;28.11;27.57;100644.01;1667807;86;25773;-60
2022/05/21 09:19:10;;;;;;;4.92;1.50;;;;;;;28.65;25.79;100618.89;1678638;82;28195;-60
2022/05/21 09:21:42;;;;;;;14.28;2.27;;;;;;;28.94;24.99;100620.03;1686477;85;25802;-60
2022/05/21 09:24:33;;;;;;;7.08;1.87;;;;;;;29.26;25.23;100620.59;1751200;81;27619;-60
2022/05/21 09:27:01;;;;;;;8.70;1.72;;;;;;;29.54;25.15;100615.80;1754237;79;26509;-60
2022/05/21 09:29:33;;;;;;;11.53;1.70;;;;;;;30.01;24.16;100611.91;1746851;81;25736;-60
2022/05/21 09:32:23;;;;;;;5.17;1.95;;;;;;;30.32;23.94;100596.78;1747918;79;26823;-60
2022/05/21 09:35:11;;;;;;;6.05;1.80;;;;;;;30.62;23.55;100592.44;1714756;83;25786;-60
2022/05/21 09:37:42;;;;;;;4.58;1.32;;;;;;;31.04;23.32;100590.77;1714490;83;27532;-60
2022/05/21 09:40:31;;;;;;;9.10;1.98;;;;;;;31.30;22.87;100576.88;1714760;82;26078;-60
2022/05/21 09:45:46;;;;;;;6.78;1.92;;;;;;;31.03;22.18;100574.40;1715574;83;27008;-60
2022/05/21 09:48:17;;;;;;;9.85;2.15;;;;;;;31.15;22.43;100565.80;1694600;82;25888;-60
2022/05/21 09:50:52;;;;;;;5.33;1.30;;;;;;;31.62;22.27;100569.30;1697526;82;27662;-60
2022/05/21 09:53:30;;;;;;;5.33;1.60;;;;;;;32.00;21.17;100574.77;1686190;84;25864;-59
2022/05/21 09:56:02;;;;;;;4.83;1.40;;;;;;;32.21;21.83;100557.12;1687088;83;25747;-59
2022/05/21 09:58:34;;;;;;;5.53;1.65;;;;;;;32.61;20.96;100561.61;1685993;84;26315;-59
2022/05/21 10:01:01;;;;;;;5.70;1.77;;;;;;;32.62;20.35;100554.08;1658011;85;25698;-60
2022/05/21 10:03:50;;;;;;;6.03;1.57;;;;;;;32.70;20.89;100566.56;1657748;86;27500;-60
2022/05/21 10:06:36;;;;;;;9.10;1.50;;;;;;;32.97;20.75;100545.75;1658201;86;25759;-61
2022/05/21 10:12:23;;;;;;;5.83;1.72;;;;;;;33.26;20.33;100531.80;1658285;86;26211;-59
2022/05/21 10:15:13;;;;;;;2.20;1.20;;;;;;;33.50;20.70;100537.42;1684671;85;26123;-60
2022/05/21 10:17:45;;;;;;;6.33;1.37;;;;;;;33.84;20.02;100539.22;1686324;85;27464;-60
2022/05/21 10:20:35;;;;;;;7.40;1.50;;;;;;;34.30;19.64;100525.19;1685797;83;25798;-60
2022/05/21 10:23:13;;;;;;;5.65;1.45;;;;;;;34.77;18.99;100516.94;1702095;84;25746;-60
2022/05/21 10:25:54;;;;;;;4.87;1.50;;;;;;;35.09;17.91;100524.23;1700399;84;26123;-59
2022/05/21 10:28:46;;;;;;;4.28;1.60;;;;;;;35.46;17.99;100509.81;1701720;84;25931;-60
2022/05/21 10:31:33;;;;;;;12.10;1.43;;;;;;;35.97;18.04;100530.30;1687883;84;27483;-60
2022/05/21 10:34:40;;;;;;;8.60;1.42;;;;;;;36.09;16.88;100525.55;1699948;84;26033;-60
2022/05/21 10:37:24;;;;;;;6.25;1.17;;;;;;;36.19;16.78;100521.12;1702565;83;25867;-60
2022/05/21 10:39:59;;;;;;;5.65;1.70;;;;;;;36.49;16.94;100501.95;1701019;84;26230;-60
2022/05/21 10:42:57;;;;;;;11.33;1.60;;;;;;;36.50;16.69;100498.56;1700562;84;25742;-59
2022/05/21 10:45:40;;;;;;;9.43;1.57;;;;;;;36.44;16.48;100489.48;1699383;84;27567;-61
2022/05/21 10:48:29;;;;;;;;;;;;;;;36.39;16.30;100475.56;1702541;84;25767;-61
2022/05/21 10:51:13;;;;;;;6.40;1.40;;;;;;;36.46;16.65;100481.57;1699619;83;25776;-60
2022/05/21 10:54:09;;;;;;;14.45;1.50;;;;;;;36.69;16.71;100478.77;1699939;84;26078;-59
2022/05/21 10:56:56;;;;;;;7.05;1.47;;;;;;;37.40;16.02;100475.17;1699709;84;25699;-60
2022/05/21 10:59:56;;;;;;;5.50;1.57;;;;;;;38.07;15.47;100459.68;1699560;84;28513;-59
2022/05/21 11:02:40;;;;;;;5.85;1.60;;;;;;;38.23;15.21;100464.78;1699496;84;27246;-60
2022/05/21 11:05:33;;;;;;;7.33;1.10;;;;;;;38.82;15.44;100459.41;1696888;84;25722;-60
2022/05/21 11:08:11;;;;;;;3.55;1.10;;;;;;;39.25;14.46;100460.42;1699938;84;26284;-60
2022/05/21 11:11:05;;;;;;;2.25;1.00;;;;;;;39.66;14.59;100452.98;1705099;83;25619;-60
2022/05/21 11:13:39;;;;;;;3.70;1.55;;;;;;;39.98;14.22;100450.59;1705596;82;27596;-60
2022/05/21 11:16:22;;;;;;;9.63;1.27;;;;;;;39.96;13.44;100454.34;1719750;82;25746;-61
2022/05/21 11:19:16;;;;;;;3.72;1.50;;;;;;;39.66;14.00;100449.58;1725990;81;25742;-61
2022/05/21 11:21:54;;;;;;;7.97;1.40;;;;;;;38.92;14.82;100432.94;1735626;81;26094;-60
2022/05/21 11:24:45;;;;;;;3.72;1.30;;;;;;;38.76;15.14;100427.60;1708175;83;27320;-59
2022/05/21 11:27:26;;;;;;;12.00;1.47;;;;;;;38.68;14.60;100420.84;1729096;81;27588;-60
2022/05/21 11:30:13;;;;;;;2.77;1.10;;;;;;;38.67;14.81;100424.81;1732056;81;25800;-60
2022/05/21 11:38:30;;;;;;;8.40;1.75;;;;;;;37.15;15.90;100397.38;1715439;83;25766;-61
2022/05/21 11:41:30;;;;;;;2.55;1.10;;;;;;;36.66;16.03;100395.34;1705032;84;27445;-62
2022/05/21 11:47:17;;;;;;;6.70;1.20;;;;;;;36.35;16.58;100379.34;1703786;83;25846;-59
2022/05/21 11:49:52;;;;;;;6.10;1.42;;;;;;;35.96;16.36;100382.29;1714769;83;26449;-60
2022/05/21 11:52:36;;;;;;;9.80;1.30;;;;;;;35.69;16.84;100382.03;1715093;83;26060;-60
2022/05/21 11:55:29;;;;;;;5.17;1.22;;;;;;;35.70;17.27;100380.08;1714897;83;27486;-59
2022/05/21 11:57:58;;;;;;;;;;;;;;;35.81;17.38;100376.45;1717810;83;25805;-59
2022/05/21 12:00:30;;;;;;;7.33;1.17;;;;;;;35.57;16.93;100374.20;1714600;83;25841;-60
2022/05/21 12:03:02;;;;;;;6.08;1.15;;;;;;;35.30;17.63;100365.84;1715140;83;26038;-60
2022/05/21 12:05:38;;;;;;;3.80;1.32;;;;;;;34.92;17.72;100362.16;1715023;83;25715;-60
2022/05/21 12:08:25;;;;;;;5.17;1.10;;;;;;;34.88;17.80;100355.52;1714954;83;27635;-61
2022/05/21 12:11:21;;;;;;;6.80;1.20;;;;;;;34.82;18.02;100358.72;1713604;83;25783;-61
2022/05/21 12:14:02;;;;;;;2.87;1.32;;;;;;;34.62;18.06;100359.37;1689550;83;25753;-59
2022/05/21 12:16:34;;;;;;;5.72;1.37;;;;;;;34.71;18.30;100367.30;1690733;84;26102;-60
2022/05/21 12:19:03;;;;;;;5.95;1.00;;;;;;;34.41;18.46;100372.90;1715201;81;25821;-61
2022/05/21 12:21:40;;;;;;;7.95;1.40;;;;;;;34.06;18.38;100369.02;1692115;84;27701;-60